createdAt,value
2023-03-18T00:01:04.210Z,97164.59
2023-03-18T00:02:05.921Z,97168.25
2023-03-18T00:03:07.540Z,97170.81
2023-03-18T00:04:09.622Z,97169.25
2023-03-18T00:05:12.989Z,97164.50
2023-03-18T00:06:18.530Z,97164.22
2023-03-18T00:07:20.151Z,97157.50
2023-03-18T00:08:21.967Z,97164.91
2023-03-18T00:09:24.064Z,97153.28
2023-03-18T00:10:25.579Z,97163.31
2023-03-18T00:11:27.313Z,97155.84
2023-03-18T00:12:28.857Z,97155.72
2023-03-18T00:13:30.384Z,97161.44
2023-03-18T00:14:32.957Z,97154.63
2023-03-18T00:15:34.510Z,97158.28
2023-03-18T00:16:36.944Z,97156.00
2023-03-18T00:17:40.262Z,97159.75
2023-03-18T00:18:42.514Z,97153.84
2023-03-18T00:19:44.273Z,97158.09
2023-03-18T00:20:46.067Z,97156.97
2023-03-18T00:21:47.703Z,97152.06
2023-03-18T00:22:49.325Z,97153.03
2023-03-18T00:23:56.365Z,97155.50
2023-03-18T00:24:57.953Z,97158.00
2023-03-18T00:26:01.385Z,97157.38
2023-03-18T00:27:03.670Z,97150.25
2023-03-18T00:28:07.116Z,97158.13
2023-03-18T00:29:08.840Z,97156.16
2023-03-18T00:30:12.583Z,97152.31
2023-03-18T00:31:14.251Z,97147.66
2023-03-18T00:32:15.869Z,97153.94
2023-03-18T00:33:18.928Z,97146.91
2023-03-18T00:34:21.011Z,97143.66
2023-03-18T00:35:23.926Z,97148.38
2023-03-18T00:36:28.517Z,97142.47
2023-03-18T00:37:30.738Z,97146.09
2023-03-18T00:38:33.721Z,97147.38
2023-03-18T00:39:35.696Z,97142.25
2023-03-18T00:40:43.410Z,97154.47
2023-03-18T00:41:45.363Z,97146.34
2023-03-18T00:42:57.490Z,97150.13
2023-03-18T00:43:59.617Z,97151.66
2023-03-18T00:45:01.195Z,97150.13
2023-03-18T00:46:03.607Z,97149.63
2023-03-18T00:47:05.564Z,97146.66
2023-03-18T00:48:07.896Z,97147.91
2023-03-18T00:49:09.710Z,97147.91
2023-03-18T00:50:12.452Z,97151.09
2023-03-18T00:51:17.143Z,97150.13
2023-03-18T00:52:19.704Z,97147.84
2023-03-18T00:53:21.573Z,97145.59
2023-03-18T00:54:24.862Z,97145.59
2023-03-18T00:55:27.471Z,97147.41
2023-03-18T00:56:32.026Z,97144.88
2023-03-18T00:57:33.954Z,97141.41
2023-03-18T00:58:37.200Z,97143.09
2023-03-18T00:59:38.748Z,97136.91
2023-03-18T01:00:41.398Z,97138.03
2023-03-18T01:01:43.047Z,97128.78
2023-03-18T01:02:44.724Z,97135.97
2023-03-18T01:03:47.805Z,97127.63
2023-03-18T01:04:51.014Z,97129.72
2023-03-18T01:05:53.567Z,97129.91
2023-03-18T01:06:55.092Z,97126.97
2023-03-18T01:07:57.834Z,97127.97
2023-03-18T01:09:01.462Z,97134.81
2023-03-18T01:10:03.371Z,97129.84
2023-03-18T01:11:05.724Z,97129.59
2023-03-18T01:12:09.164Z,97129.16
2023-03-18T01:13:10.694Z,97127.00
2023-03-18T01:14:12.448Z,97120.69
2023-03-18T01:15:17.749Z,97130.13
2023-03-18T01:16:21.022Z,97132.06
2023-03-18T01:17:22.632Z,97129.97
2023-03-18T01:18:24.566Z,97123.88
2023-03-18T01:19:26.748Z,97134.19
2023-03-18T01:20:29.283Z,97128.97
2023-03-18T01:21:30.877Z,97133.19
2023-03-18T01:22:32.666Z,97127.88
2023-03-18T01:23:35.345Z,97125.75
2023-03-18T01:24:36.979Z,97131.84
2023-03-18T01:25:38.814Z,97129.97
2023-03-18T01:26:40.397Z,97126.75
2023-03-18T01:27:42.754Z,97126.16
2023-03-18T01:28:44.346Z,97119.09
2023-03-18T01:29:46.920Z,97128.38
2023-03-18T01:30:49.273Z,97124.66
2023-03-18T01:31:51.407Z,97127.78
2023-03-18T01:32:54.075Z,97125.84
2023-03-18T01:33:56.184Z,97127.41
2023-03-18T01:34:58.252Z,97131.16
2023-03-18T01:36:02.407Z,97136.06
2023-03-18T01:37:04.086Z,97131.03
2023-03-18T01:38:06.301Z,97128.31
2023-03-18T01:39:08.536Z,97126.16
2023-03-18T01:40:12.004Z,97132.06
2023-03-18T01:41:13.641Z,97129.59
2023-03-18T01:42:18.180Z,97125.06
2023-03-18T01:43:26.390Z,97116.50
2023-03-18T01:44:28.132Z,97127.84
2023-03-18T01:45:30.684Z,97120.13
2023-03-18T01:46:41.145Z,97125.16
2023-03-18T01:47:44.811Z,97124.72
2023-03-18T01:48:46.470Z,97123.66
2023-03-18T01:49:50.184Z,97119.63
2023-03-18T01:50:59.306Z,97113.38
2023-03-18T01:52:02.993Z,97115.53
2023-03-18T01:53:09.321Z,97118.25
2023-03-18T01:54:13.062Z,97117.25
2023-03-18T01:55:20.919Z,97114.69
2023-03-18T01:56:22.476Z,97118.00
2023-03-18T01:57:24.244Z,97121.28
2023-03-18T01:58:29.713Z,97111.78
2023-03-18T01:59:34.197Z,97110.72
2023-03-18T02:00:41.898Z,97109.66
2023-03-18T02:01:55.999Z,97111.78
2023-03-18T02:02:58.365Z,97103.84
2023-03-18T02:04:01.118Z,97112.25
2023-03-18T02:05:06.704Z,97107.72
2023-03-18T02:06:10.134Z,97112.09
2023-03-18T02:07:21.671Z,97110.38
2023-03-18T02:08:23.433Z,97104.69
2023-03-18T02:09:25.061Z,97108.41
2023-03-18T02:10:30.244Z,97112.16
2023-03-18T02:11:34.722Z,97110.78
2023-03-18T02:12:41.756Z,97112.59
2023-03-18T02:13:46.018Z,97104.34
2023-03-18T02:14:49.349Z,97104.72
2023-03-18T02:15:57.720Z,97109.06
2023-03-18T02:17:10.448Z,97107.06
2023-03-18T02:18:21.040Z,97113.59
2023-03-18T02:19:54.887Z,97107.94
2023-03-18T02:21:08.309Z,97111.88
2023-03-18T02:22:45.108Z,97115.25
2023-03-18T02:24:06.182Z,97112.25
2023-03-18T02:25:23.030Z,97117.03
2023-03-18T02:26:48.136Z,97115.97
2023-03-18T02:27:54.867Z,97111.25
2023-03-18T02:29:03.162Z,97111.16
2023-03-18T02:30:11.403Z,97114.25
2023-03-18T02:31:16.710Z,97113.09
2023-03-18T02:32:20.772Z,97112.53
2023-03-18T02:33:26.702Z,97114.41
2023-03-18T02:34:29.157Z,97110.38
2023-03-18T02:35:32.237Z,97118.25
2023-03-18T02:36:35.726Z,97111.00
2023-03-18T02:37:38.281Z,97105.31
2023-03-18T02:38:44.109Z,97105.25
2023-03-18T02:39:45.641Z,97105.81
2023-03-18T02:40:47.214Z,97106.28
2023-03-18T02:41:49.015Z,97106.56
2023-03-18T02:42:50.972Z,97109.81
2023-03-18T02:43:53.430Z,97106.84
2023-03-18T02:44:55.551Z,97104.63
2023-03-18T02:46:07.302Z,97105.34
2023-03-18T02:47:13.382Z,97110.09
2023-03-18T02:48:18.980Z,97111.94
2023-03-18T02:49:21.670Z,97110.38
2023-03-18T02:50:24.443Z,97102.41
2023-03-18T02:51:27.242Z,97107.88
2023-03-18T02:52:28.812Z,97107.44
2023-03-18T02:53:30.430Z,97104.91
2023-03-18T02:54:32.877Z,97111.94
2023-03-18T02:55:34.435Z,97102.75
2023-03-18T02:56:37.950Z,97097.84
2023-03-18T02:57:39.549Z,97098.63
2023-03-18T02:58:41.255Z,97101.00
2023-03-18T02:59:42.783Z,97100.41
2023-03-18T03:00:44.614Z,97100.41
2023-03-18T03:01:49.118Z,97104.38
2023-03-18T03:02:50.986Z,97101.44
2023-03-18T03:03:52.621Z,97099.84
2023-03-18T03:04:54.244Z,97101.78
2023-03-18T03:05:56.466Z,97107.97
2023-03-18T03:07:01.437Z,97107.00
2023-03-18T03:08:03.088Z,97109.28
2023-03-18T03:09:06.963Z,97107.13
2023-03-18T03:10:09.413Z,97105.97
2023-03-18T03:11:11.590Z,97111.00
2023-03-18T03:12:13.777Z,97106.59
2023-03-18T03:13:15.690Z,97105.38
2023-03-18T03:14:17.373Z,97107.94
2023-03-18T03:15:19.387Z,97110.91
2023-03-18T03:16:21.345Z,97116.56
2023-03-18T03:17:22.877Z,97108.41
2023-03-18T03:18:24.595Z,97102.66
2023-03-18T03:19:26.125Z,97102.94
2023-03-18T03:20:28.528Z,97103.53
2023-03-18T03:21:30.536Z,97103.56
2023-03-18T03:22:33.219Z,97108.28
2023-03-18T03:23:35.703Z,97111.41
2023-03-18T03:24:37.527Z,97113.38
2023-03-18T03:25:40.136Z,97113.78
2023-03-18T03:26:41.725Z,97111.53
2023-03-18T03:27:43.711Z,97106.69
2023-03-18T03:28:46.048Z,97107.13
2023-03-18T03:29:47.772Z,97112.13
2023-03-18T03:30:49.587Z,97104.63
2023-03-18T03:31:51.474Z,97106.94
2023-03-18T03:32:53.287Z,97109.53
2023-03-18T03:33:54.879Z,97105.25
2023-03-18T03:34:56.446Z,97107.06
2023-03-18T03:35:58.303Z,97112.56
2023-03-18T03:36:59.957Z,97110.13
2023-03-18T03:38:02.079Z,97119.41
2023-03-18T03:39:04.266Z,97112.56
2023-03-18T03:40:06.424Z,97111.44
2023-03-18T03:41:10.416Z,97109.53
2023-03-18T03:42:11.965Z,97117.69
2023-03-18T03:43:15.833Z,97115.50
2023-03-18T03:44:17.372Z,97120.28
2023-03-18T03:45:20.187Z,97119.34
2023-03-18T03:46:21.867Z,97112.69
2023-03-18T03:47:23.716Z,97114.38
2023-03-18T03:48:25.345Z,97112.81
2023-03-18T03:49:27.224Z,97119.75
2023-03-18T03:50:29.173Z,97115.56
2023-03-18T03:51:30.815Z,97115.13
2023-03-18T03:52:32.928Z,97122.69
2023-03-18T03:53:36.129Z,97123.22
2023-03-18T03:54:38.278Z,97117.97
2023-03-18T03:55:39.962Z,97119.56
2023-03-18T03:56:42.329Z,97126.47
2023-03-18T03:57:44.821Z,97118.81
2023-03-18T03:58:46.829Z,97121.78
2023-03-18T03:59:48.389Z,97122.53
2023-03-18T04:00:49.937Z,97117.25
2023-03-18T04:01:51.982Z,97121.84
2023-03-18T04:02:54.376Z,97114.72
2023-03-18T04:03:56.565Z,97116.81
2023-03-18T04:04:58.137Z,97118.19
2023-03-18T04:05:59.638Z,97110.28
2023-03-18T04:07:01.230Z,97117.19
2023-03-18T04:08:03.067Z,97112.38
2023-03-18T04:09:04.719Z,97108.09
2023-03-18T04:10:09.670Z,97115.47
2023-03-18T04:11:11.230Z,97115.47
2023-03-18T04:12:13.834Z,97119.44
2023-03-18T04:13:15.364Z,97130.78
2023-03-18T04:14:17.365Z,97118.28
2023-03-18T04:15:21.972Z,97120.09
2023-03-18T04:16:23.582Z,97123.97
2023-03-18T04:17:25.646Z,97122.59
2023-03-18T04:18:27.228Z,97118.53
2023-03-18T04:19:29.133Z,97112.13
2023-03-18T04:20:30.922Z,97112.59
2023-03-18T04:21:33.070Z,97111.72
2023-03-18T04:22:34.984Z,97116.97
2023-03-18T04:23:36.581Z,97116.41
2023-03-18T04:24:38.233Z,97122.19
2023-03-18T04:25:40.049Z,97116.28
2023-03-18T04:26:41.680Z,97126.34
2023-03-18T04:27:43.422Z,97123.72
2023-03-18T04:28:45.128Z,97125.22
2023-03-18T04:29:46.838Z,97127.31
2023-03-18T04:30:48.947Z,97125.66
2023-03-18T04:31:51.199Z,97123.53
2023-03-18T04:32:54.906Z,97124.53
2023-03-18T04:33:57.431Z,97131.63
2023-03-18T04:34:59.294Z,97128.13
2023-03-18T04:36:01.059Z,97129.72
2023-03-18T04:37:03.827Z,97135.53
2023-03-18T04:38:05.866Z,97132.31
2023-03-18T04:39:09.598Z,97138.13
2023-03-18T04:40:12.473Z,97132.53
2023-03-18T04:41:14.020Z,97129.59
2023-03-18T04:42:16.543Z,97135.41
2023-03-18T04:43:18.122Z,97129.03
2023-03-18T04:44:19.632Z,97132.19
2023-03-18T04:45:21.136Z,97126.88
2023-03-18T04:46:22.928Z,97135.34
2023-03-18T04:47:24.536Z,97131.97
2023-03-18T04:48:27.176Z,97133.91
2023-03-18T04:49:29.174Z,97129.72
2023-03-18T04:50:30.980Z,97131.84
2023-03-18T04:51:32.584Z,97132.44
2023-03-18T04:52:34.822Z,97132.38
2023-03-18T04:53:37.388Z,97136.81
2023-03-18T04:54:39.733Z,97137.84
2023-03-18T04:55:41.698Z,97141.00
2023-03-18T04:56:43.836Z,97132.59
2023-03-18T04:57:45.758Z,97138.47
2023-03-18T04:58:47.633Z,97139.75
2023-03-18T04:59:49.218Z,97146.66
2023-03-18T05:00:50.805Z,97138.13
2023-03-18T05:01:52.402Z,97146.31
2023-03-18T05:02:54.074Z,97152.63
2023-03-18T05:03:56.121Z,97146.47
2023-03-18T05:04:57.996Z,97146.97
2023-03-18T05:05:59.620Z,97154.22
2023-03-18T05:07:01.215Z,97155.53
2023-03-18T05:08:02.889Z,97150.69
2023-03-18T05:09:05.673Z,97152.50
2023-03-18T05:10:08.353Z,97148.09
2023-03-18T05:11:09.900Z,97148.16
2023-03-18T05:12:13.622Z,97151.34
2023-03-18T05:13:16.212Z,97152.97
2023-03-18T05:14:17.840Z,97151.53
2023-03-18T05:15:19.470Z,97160.22
2023-03-18T05:16:21.125Z,97161.44
2023-03-18T05:17:22.728Z,97158.19
2023-03-18T05:18:24.324Z,97157.59
2023-03-18T05:19:25.930Z,97154.44
2023-03-18T05:20:28.159Z,97158.25
2023-03-18T05:21:30.565Z,97158.78
2023-03-18T05:22:36.052Z,97166.22
2023-03-18T05:23:39.134Z,97166.63
2023-03-18T05:24:41.665Z,97158.59
2023-03-18T05:25:43.313Z,97167.22
2023-03-18T05:26:44.943Z,97171.59
2023-03-18T05:27:47.703Z,97169.06
2023-03-18T05:28:49.295Z,97175.69
2023-03-18T05:29:50.837Z,97173.53
2023-03-18T05:30:53.029Z,97168.91
2023-03-18T05:31:54.614Z,97166.41
2023-03-18T05:32:56.409Z,97171.19
2023-03-18T05:33:58.025Z,97173.63
2023-03-18T05:34:59.616Z,97176.50
2023-03-18T05:36:01.856Z,97173.56
2023-03-18T05:37:08.899Z,97173.09
2023-03-18T05:38:10.489Z,97175.59
2023-03-18T05:39:12.024Z,97183.03
2023-03-18T05:40:14.740Z,97182.06
2023-03-18T05:41:16.325Z,97190.56
2023-03-18T05:42:18.246Z,97191.94
2023-03-18T05:43:20.196Z,97190.94
2023-03-18T05:44:21.729Z,97193.34
2023-03-18T05:45:24.420Z,97188.56
2023-03-18T05:46:27.098Z,97196.47
2023-03-18T05:47:28.672Z,97192.97
2023-03-18T05:48:30.206Z,97186.31
2023-03-18T05:49:32.122Z,97196.34
2023-03-18T05:50:37.117Z,97196.34
2023-03-18T05:51:39.320Z,97196.94
2023-03-18T05:52:40.915Z,97192.63
2023-03-18T05:53:42.586Z,97188.88
2023-03-18T05:54:44.783Z,97194.66
2023-03-18T05:55:46.667Z,97194.13
2023-03-18T05:56:48.402Z,97198.28
2023-03-18T05:57:50.048Z,97195.63
2023-03-18T05:58:52.157Z,97190.25
2023-03-18T05:59:53.760Z,97192.28
2023-03-18T06:00:56.159Z,97192.78
2023-03-18T06:01:57.909Z,97185.97
2023-03-18T06:03:01.222Z,97192.84
2023-03-18T06:04:03.130Z,97191.00
2023-03-18T06:05:05.121Z,97184.88
2023-03-18T06:06:06.858Z,97192.28
2023-03-18T06:07:08.483Z,97190.13
2023-03-18T06:08:10.933Z,97191.97
2023-03-18T06:09:13.471Z,97194.44
2023-03-18T06:10:15.360Z,97204.03
2023-03-18T06:11:17.107Z,97195.00
2023-03-18T06:12:20.357Z,97200.25
2023-03-18T06:13:22.577Z,97200.25
2023-03-18T06:14:29.532Z,97197.44
2023-03-18T06:15:32.412Z,97200.09
2023-03-18T06:16:35.332Z,97200.75
2023-03-18T06:17:37.269Z,97205.25
2023-03-18T06:18:39.110Z,97204.44
2023-03-18T06:19:40.796Z,97200.63
2023-03-18T06:20:42.467Z,97204.13
2023-03-18T06:21:44.129Z,97208.00
2023-03-18T06:22:49.674Z,97202.03
2023-03-18T06:23:51.986Z,97206.81
2023-03-18T06:24:54.139Z,97199.59
2023-03-18T06:25:56.139Z,97202.78
2023-03-18T06:26:57.798Z,97194.81
2023-03-18T06:27:59.313Z,97198.78
2023-03-18T06:29:00.908Z,97199.59
2023-03-18T06:30:04.738Z,97189.03
2023-03-18T06:31:06.478Z,97192.41
2023-03-18T06:32:08.257Z,97191.09
2023-03-18T06:33:10.816Z,97196.34
2023-03-18T06:34:13.053Z,97186.28
2023-03-18T06:35:15.585Z,97184.03
2023-03-18T06:36:17.793Z,97191.03
2023-03-18T06:37:20.994Z,97180.50
2023-03-18T06:38:22.854Z,97186.75
2023-03-18T06:39:24.799Z,97183.03
2023-03-18T06:40:26.422Z,97183.56
2023-03-18T06:41:28.142Z,97184.84
2023-03-18T06:42:29.785Z,97177.03
2023-03-18T06:43:31.863Z,97175.91
2023-03-18T06:44:33.468Z,97174.44
2023-03-18T06:45:35.179Z,97173.06
2023-03-18T06:46:37.294Z,97169.13
2023-03-18T06:47:40.021Z,97170.00
2023-03-18T06:48:42.318Z,97174.97
2023-03-18T06:49:43.899Z,97171.81
2023-03-18T06:50:46.474Z,97169.28
2023-03-18T06:51:48.678Z,97167.38
2023-03-18T06:52:50.211Z,97166.59
2023-03-18T06:53:51.899Z,97162.41
2023-03-18T06:54:53.513Z,97165.63
2023-03-18T06:55:56.773Z,97164.53
2023-03-18T06:56:58.868Z,97166.00
2023-03-18T06:58:00.484Z,97165.56
2023-03-18T06:59:02.094Z,97161.34
2023-03-18T07:00:05.193Z,97161.56
2023-03-18T07:01:08.377Z,97158.97
2023-03-18T07:02:11.066Z,97158.09
2023-03-18T07:03:13.517Z,97155.78
2023-03-18T07:04:15.384Z,97157.25
2023-03-18T07:05:17.245Z,97161.25
2023-03-18T07:06:18.891Z,97164.84
2023-03-18T07:07:21.182Z,97168.34
2023-03-18T07:08:23.356Z,97156.16
2023-03-18T07:09:24.879Z,97160.25
2023-03-18T07:10:29.960Z,97159.84
2023-03-18T07:11:31.575Z,97162.00
2023-03-18T07:12:33.148Z,97156.41
2023-03-18T07:13:34.742Z,97150.69
2023-03-18T07:14:36.269Z,97158.16
2023-03-18T07:15:39.216Z,97155.81
2023-03-18T07:16:41.323Z,97152.44
2023-03-18T07:17:43.542Z,97154.59
2023-03-18T07:18:45.247Z,97150.97
2023-03-18T07:19:46.980Z,97144.53
2023-03-18T07:20:49.254Z,97147.41
2023-03-18T07:21:51.024Z,97146.09
2023-03-18T07:22:53.389Z,97150.75
2023-03-18T07:23:55.559Z,97145.81
2023-03-18T07:24:57.251Z,97143.06
2023-03-18T07:25:58.905Z,97144.69
2023-03-18T07:27:00.603Z,97145.00
2023-03-18T07:28:02.286Z,97144.41
2023-03-18T07:29:04.674Z,97137.22
2023-03-18T07:30:09.525Z,97137.66
2023-03-18T07:31:11.110Z,97140.72
2023-03-18T07:32:12.777Z,97136.94
2023-03-18T07:33:14.329Z,97143.16
2023-03-18T07:34:17.807Z,97132.97
2023-03-18T07:35:20.676Z,97134.66
2023-03-18T07:36:22.248Z,97136.03
2023-03-18T07:37:24.220Z,97137.34
2023-03-18T07:38:25.806Z,97130.09
2023-03-18T07:39:27.643Z,97132.69
2023-03-18T07:40:29.200Z,97131.53
2023-03-18T07:41:30.830Z,97132.34
2023-03-18T07:42:33.634Z,97124.00
2023-03-18T07:43:35.294Z,97127.72
2023-03-18T07:44:37.658Z,97128.47
2023-03-18T07:45:39.299Z,97127.16
2023-03-18T07:46:41.305Z,97129.44
2023-03-18T07:47:43.498Z,97137.19
2023-03-18T07:48:46.686Z,97128.69
2023-03-18T07:49:48.192Z,97127.59
2023-03-18T07:50:49.977Z,97124.13
2023-03-18T07:51:52.276Z,97130.75
2023-03-18T07:52:54.025Z,97124.72
2023-03-18T07:53:55.638Z,97126.28
2023-03-18T07:54:57.329Z,97125.19
2023-03-18T07:55:58.869Z,97121.28
2023-03-18T07:57:00.452Z,97121.25
2023-03-18T07:58:02.302Z,97119.25
2023-03-18T07:59:03.956Z,97120.03
2023-03-18T08:00:07.611Z,97116.88
2023-03-18T08:01:09.489Z,97118.28
2023-03-18T08:02:14.406Z,97115.47
2023-03-18T08:03:16.711Z,97119.53
2023-03-18T08:04:19.528Z,97112.50
2023-03-18T08:05:22.116Z,97119.88
2023-03-18T08:06:24.080Z,97123.81
2023-03-18T08:07:25.751Z,97117.81
2023-03-18T08:08:28.121Z,97111.63
2023-03-18T08:09:29.731Z,97119.94
2023-03-18T08:10:31.880Z,97114.97
2023-03-18T08:11:33.608Z,97111.78
2023-03-18T08:12:49.345Z,97114.00
2023-03-18T08:13:53.972Z,97107.50
2023-03-18T08:14:55.508Z,97112.50
2023-03-18T08:15:57.440Z,97111.31
2023-03-18T08:16:59.040Z,97107.94
2023-03-18T08:18:00.794Z,97104.31
2023-03-18T08:19:02.469Z,97110.31
2023-03-18T08:20:05.286Z,97114.25
2023-03-18T08:21:07.877Z,97105.84
2023-03-18T08:22:10.128Z,97105.34
2023-03-18T08:23:11.759Z,97095.28
2023-03-18T08:24:14.035Z,97105.63
2023-03-18T08:25:16.163Z,97102.06
2023-03-18T08:26:17.698Z,97108.72
2023-03-18T08:27:19.297Z,97099.84
2023-03-18T08:28:21.010Z,97106.41
2023-03-18T08:29:22.703Z,97102.06
2023-03-18T08:30:28.636Z,97098.75
2023-03-18T08:31:30.363Z,97104.34
2023-03-18T08:32:32.710Z,97106.13
2023-03-18T08:33:34.303Z,97101.44
2023-03-18T08:34:37.032Z,97100.25
2023-03-18T08:35:41.545Z,97091.34
2023-03-18T08:36:43.123Z,97096.50
2023-03-18T08:37:44.802Z,97090.44
2023-03-18T08:38:46.394Z,97094.09
2023-03-18T08:39:47.981Z,97090.16
2023-03-18T08:40:49.566Z,97092.84
2023-03-18T08:41:51.245Z,97091.09
2023-03-18T08:42:53.318Z,97092.25
2023-03-18T08:43:57.472Z,97090.31
2023-03-18T08:44:59.379Z,97087.47
2023-03-18T08:46:01.101Z,97084.00
2023-03-18T08:47:02.831Z,97085.19
2023-03-18T08:48:04.842Z,97087.59
2023-03-18T08:49:07.760Z,97085.94
2023-03-18T08:50:10.480Z,97083.81
2023-03-18T08:51:12.346Z,97078.59
2023-03-18T08:52:13.919Z,97083.38
2023-03-18T08:53:16.476Z,97089.44
2023-03-18T08:54:18.656Z,97090.66
2023-03-18T08:55:21.476Z,97083.44
2023-03-18T08:56:23.078Z,97088.38
2023-03-18T08:57:27.892Z,97094.47
2023-03-18T08:58:29.865Z,97085.53
2023-03-18T08:59:31.461Z,97089.28
2023-03-18T09:00:36.577Z,97081.56
2023-03-18T09:01:38.469Z,97086.75
2023-03-18T09:02:40.041Z,97086.59
2023-03-18T09:03:41.636Z,97090.03
2023-03-18T09:04:43.863Z,97089.41
2023-03-18T09:05:48.629Z,97087.50
2023-03-18T09:06:50.226Z,97090.81
2023-03-18T09:07:53.252Z,97090.50
2023-03-18T09:08:54.849Z,97091.28
2023-03-18T09:09:56.471Z,97087.34
2023-03-18T09:10:58.729Z,97084.94
2023-03-18T09:12:01.183Z,97079.16
2023-03-18T09:13:03.395Z,97080.41
2023-03-18T09:14:05.261Z,97078.47
2023-03-18T09:15:07.574Z,97079.94
2023-03-18T09:16:09.136Z,97071.47
2023-03-18T09:17:10.940Z,97080.78
2023-03-18T09:18:13.749Z,97077.16
2023-03-18T09:19:15.300Z,97075.09
2023-03-18T09:20:18.025Z,97076.78
2023-03-18T09:21:20.310Z,97073.81
2023-03-18T09:22:22.843Z,97071.59
2023-03-18T09:23:26.310Z,97079.94
2023-03-18T09:24:27.867Z,97074.81
2023-03-18T09:25:29.514Z,97074.53
2023-03-18T09:26:31.054Z,97078.31
2023-03-18T09:27:32.587Z,97072.69
2023-03-18T09:28:34.221Z,97078.66
2023-03-18T09:29:35.802Z,97077.09
2023-03-18T09:30:38.151Z,97069.31
2023-03-18T09:31:40.390Z,97066.13
2023-03-18T09:32:43.501Z,97067.34
2023-03-18T09:33:45.174Z,97058.66
2023-03-18T09:34:46.826Z,97067.59
2023-03-18T09:35:49.546Z,97059.50
2023-03-18T09:36:51.576Z,97056.91
2023-03-18T09:37:54.228Z,97061.63
2023-03-18T09:38:56.105Z,97062.19
2023-03-18T09:39:58.399Z,97060.34
2023-03-18T09:41:16.491Z,97059.41
2023-03-18T09:42:30.166Z,97056.78
2023-03-18T09:44:05.470Z,97060.09
2023-03-18T09:45:19.825Z,97062.38
2023-03-18T09:46:43.272Z,97054.63
2023-03-18T09:48:00.335Z,97053.56
2023-03-18T09:49:33.195Z,97054.59
2023-03-18T09:50:47.874Z,97052.53
2023-03-18T09:52:21.650Z,97054.41
2023-03-18T09:53:45.290Z,97048.88
2023-03-18T09:54:49.609Z,97046.72
2023-03-18T09:55:56.045Z,97048.81
2023-03-18T09:56:58.506Z,97047.91
2023-03-18T09:58:05.172Z,97038.88
2023-03-18T09:59:29.569Z,97037.47
2023-03-18T10:00:34.187Z,97035.84
2023-03-18T10:01:39.335Z,97038.31
2023-03-18T10:02:46.826Z,97032.78
2023-03-18T10:03:54.575Z,97038.03
2023-03-18T10:05:02.756Z,97028.56
2023-03-18T10:06:24.765Z,97034.78
2023-03-18T10:07:33.678Z,97030.75
2023-03-18T10:08:56.480Z,97028.03
2023-03-18T10:10:07.786Z,97026.31
2023-03-18T10:11:36.222Z,97032.34
2023-03-18T10:12:45.262Z,97027.81
2023-03-18T10:13:57.247Z,97022.50
2023-03-18T10:15:13.655Z,97023.97
2023-03-18T10:16:23.721Z,97014.41
2023-03-18T10:17:36.044Z,97014.56
2023-03-18T10:18:42.106Z,97013.25
2023-03-18T10:19:57.521Z,97022.13
2023-03-18T10:21:05.097Z,97019.09
2023-03-18T10:22:33.201Z,97010.19
2023-03-18T10:23:44.717Z,97011.06
2023-03-18T10:25:00.387Z,97007.06
2023-03-18T10:26:13.029Z,96998.81
2023-03-18T10:27:19.280Z,96997.94
2023-03-18T10:28:35.784Z,97002.63
2023-03-18T10:29:40.682Z,96993.88
2023-03-18T10:31:00.699Z,96988.84
2023-03-18T10:32:15.718Z,96988.38
2023-03-18T10:33:41.787Z,96990.47
2023-03-18T10:34:46.185Z,96984.38
2023-03-18T10:36:12.500Z,96990.63
2023-03-18T10:38:16.086Z,96988.38
2023-03-18T10:39:22.665Z,96987.78
2023-03-18T10:40:24.999Z,96992.38
2023-03-18T10:41:33.703Z,96977.03
2023-03-18T10:42:37.893Z,96983.03
2023-03-18T10:43:39.871Z,96975.88
2023-03-18T10:44:45.093Z,96974.44
2023-03-18T10:45:52.055Z,96966.84
2023-03-18T10:47:19.048Z,96968.88
2023-03-18T10:48:42.384Z,96966.09
2023-03-18T10:49:51.138Z,96960.50
2023-03-18T10:51:03.722Z,96958.97
2023-03-18T10:52:31.139Z,96958.16
2023-03-18T10:53:45.881Z,96965.41
2023-03-18T10:54:50.643Z,96960.25
2023-03-18T10:56:09.471Z,96962.94
2023-03-18T10:57:18.192Z,96961.25
2023-03-18T10:58:20.130Z,96956.22
2023-03-18T10:59:24.785Z,96955.78
2023-03-18T11:00:28.444Z,96956.03
2023-03-18T11:01:30.203Z,96955.91
2023-03-18T11:02:39.049Z,96949.56
2023-03-18T11:03:52.630Z,96945.75
2023-03-18T11:05:00.068Z,96954.00
2023-03-18T11:06:04.749Z,96943.16
2023-03-18T11:07:11.255Z,96947.22
2023-03-18T11:08:34.295Z,96937.00
2023-03-18T11:09:39.533Z,96948.09
2023-03-18T11:10:46.132Z,96936.88
2023-03-18T11:11:49.868Z,96935.97
2023-03-18T11:12:58.723Z,96930.69
2023-03-18T11:14:02.741Z,96937.00
2023-03-18T11:15:10.775Z,96935.09
2023-03-18T11:16:23.155Z,96939.91
2023-03-18T11:17:31.707Z,96929.59
2023-03-18T11:18:35.736Z,96932.84
2023-03-18T11:19:48.638Z,96930.50
2023-03-18T11:21:13.041Z,96925.88
2023-03-18T11:22:19.360Z,96930.13
2023-03-18T11:23:48.584Z,96928.19
2023-03-18T11:25:17.285Z,96907.75
2023-03-18T11:26:26.330Z,96922.88
2023-03-18T11:27:34.453Z,96913.34
2023-03-18T11:28:42.231Z,96914.22
2023-03-18T11:29:49.725Z,96904.94
2023-03-18T11:30:56.177Z,96909.09
2023-03-18T11:31:58.933Z,96913.38
2023-03-18T11:33:04.560Z,96907.38
2023-03-18T11:34:08.862Z,96906.66
2023-03-18T11:35:20.303Z,96895.63
2023-03-18T11:36:24.151Z,96900.59
2023-03-18T11:37:40.799Z,96902.28
2023-03-18T11:38:43.278Z,96902.38
2023-03-18T11:39:44.783Z,96899.16
2023-03-18T11:40:47.008Z,96898.16
2023-03-18T11:41:49.352Z,96891.94
2023-03-18T11:43:01.775Z,96897.56
2023-03-18T11:44:18.595Z,96900.59
2023-03-18T11:45:46.383Z,96900.47
2023-03-18T11:46:47.982Z,96897.97
2023-03-18T11:47:49.571Z,96899.53
2023-03-18T11:48:52.221Z,96897.53
2023-03-18T11:49:54.443Z,96890.13
2023-03-18T11:51:29.486Z,96881.47
2023-03-18T11:52:44.126Z,96889.16
2023-03-18T11:53:57.768Z,96888.09
2023-03-18T11:55:10.951Z,96880.56
2023-03-18T11:56:12.416Z,96892.72
2023-03-18T11:57:23.508Z,96882.94
2023-03-18T11:58:31.438Z,96881.50
2023-03-18T11:59:38.471Z,96865.78
2023-03-18T12:00:52.655Z,96880.97
2023-03-18T12:02:07.852Z,96875.13
2023-03-18T12:03:09.774Z,96867.19
2023-03-18T12:04:28.075Z,96880.97
2023-03-18T12:05:44.614Z,96880.69
2023-03-18T12:06:57.284Z,96883.66
2023-03-18T12:08:48.018Z,96877.19
2023-03-18T12:09:56.891Z,96887.28
2023-03-18T12:11:09.723Z,96885.19
2023-03-18T12:12:20.696Z,96892.84
2023-03-18T12:13:31.711Z,96878.81
2023-03-18T12:14:49.804Z,96874.38
2023-03-18T12:15:58.182Z,96889.34
2023-03-18T12:17:25.687Z,96885.63
2023-03-18T12:18:48.658Z,96879.44
2023-03-18T12:19:59.177Z,96881.09
2023-03-18T12:21:12.110Z,96884.03
2023-03-18T12:22:25.395Z,96873.22
2023-03-18T12:24:21.570Z,96889.66
2023-03-18T12:25:54.289Z,96881.13
2023-03-18T12:27:37.277Z,96885.06
2023-03-18T12:28:39.185Z,96881.47
2023-03-18T12:30:10.002Z,96876.47
2023-03-18T12:31:23.808Z,96880.56
2023-03-18T12:32:40.421Z,96880.16
2023-03-18T12:34:02.881Z,96884.59
2023-03-18T12:35:18.804Z,96876.75
2023-03-18T12:36:31.268Z,96874.00
2023-03-18T12:37:58.974Z,96869.72
2023-03-18T12:39:33.977Z,96861.50
2023-03-18T12:40:51.252Z,96857.97
2023-03-18T12:42:09.181Z,96862.06
2023-03-18T12:43:17.366Z,96860.25
2023-03-18T12:44:29.468Z,96867.06
2023-03-18T12:45:37.844Z,96859.69